createdAt,value
2023-01-19T00:00:08.952Z,13.57
2023-01-19T00:02:36.449Z,14.32
2023-01-19T00:05:04.377Z,13.37
2023-01-19T00:07:33.545Z,13.87
2023-01-19T00:10:01.116Z,14.03
2023-01-19T00:12:28.623Z,14.33
2023-01-19T00:14:56.436Z,13.40
2023-01-19T00:17:24.033Z,14.93
2023-01-19T00:19:51.588Z,13.70
2023-01-19T00:22:19.120Z,12.87
2023-01-19T00:24:48.039Z,13.33
2023-01-19T00:27:15.847Z,14.27
2023-01-19T00:29:43.391Z,13.90
2023-01-19T00:32:10.935Z,13.90
2023-01-19T00:34:42.651Z,13.97
2023-01-19T00:37:10.613Z,14.33
2023-01-19T00:39:38.616Z,13.80
2023-01-19T00:42:24.940Z,13.37
2023-01-19T00:44:52.610Z,14.17
2023-01-19T00:47:20.106Z,13.87
2023-01-19T00:49:47.676Z,14.87
2023-01-19T00:52:15.220Z,13.87
2023-01-19T00:54:42.931Z,13.73
2023-01-19T00:57:12.022Z,12.57
2023-01-19T00:59:39.548Z,14.00
2023-01-19T01:02:07.338Z,14.73
2023-01-19T01:04:35.209Z,13.23
2023-01-19T01:07:02.697Z,13.87
2023-01-19T01:09:30.401Z,14.33
2023-01-19T01:11:58.101Z,13.50
2023-01-19T01:14:28.801Z,13.67
2023-01-19T01:16:56.475Z,12.80
2023-01-19T01:19:24.177Z,13.27
2023-01-19T01:21:51.669Z,14.13
2023-01-19T01:24:20.721Z,12.60
2023-01-19T01:26:48.508Z,14.23
2023-01-19T01:29:16.633Z,13.67
2023-01-19T01:31:45.620Z,13.83
2023-01-19T01:34:13.420Z,13.57
2023-01-19T01:36:41.710Z,13.10
2023-01-19T01:39:09.317Z,13.23
2023-01-19T01:41:37.287Z,13.90
2023-01-19T01:44:08.252Z,13.17
2023-01-19T01:46:36.070Z,12.77
2023-01-19T01:49:06.619Z,14.80
2023-01-19T01:51:35.410Z,13.63
2023-01-19T01:54:08.881Z,13.77
2023-01-19T01:56:38.435Z,13.57
2023-01-19T01:59:07.794Z,13.43
2023-01-19T02:01:53.629Z,13.80
2023-01-19T02:04:22.818Z,14.30
2023-01-19T02:07:08.076Z,14.13
2023-01-19T02:09:54.841Z,13.37
2023-01-19T02:12:40.766Z,13.47
2023-01-19T02:15:15.913Z,13.17
2023-01-19T02:17:43.654Z,13.73
2023-01-19T02:20:13.142Z,11.88
2023-01-19T02:22:45.277Z,14.47
2023-01-19T02:25:14.519Z,13.57
2023-01-19T02:27:42.566Z,13.45
2023-01-19T02:30:10.918Z,13.20
2023-01-19T02:32:38.605Z,14.27
2023-01-19T02:35:06.609Z,12.93
2023-01-19T02:37:37.403Z,12.95
2023-01-19T02:40:06.902Z,13.20
2023-01-19T02:42:38.039Z,13.15
2023-01-19T02:45:06.890Z,13.23
2023-01-19T02:47:38.666Z,12.97
2023-01-19T02:50:07.031Z,12.10
2023-01-19T02:52:34.714Z,13.97
2023-01-19T02:55:05.830Z,13.50
2023-01-19T02:57:43.614Z,12.93
2023-01-19T03:00:22.220Z,13.77
2023-01-19T03:02:56.917Z,12.60
2023-01-19T03:05:34.020Z,13.23
2023-01-19T03:08:07.746Z,13.27
2023-01-19T03:10:39.891Z,12.77
2023-01-19T03:13:11.858Z,13.50
2023-01-19T03:15:44.359Z,13.03
2023-01-19T03:18:14.631Z,14.00
2023-01-19T03:20:42.967Z,13.93
2023-01-19T03:23:11.845Z,12.20
2023-01-19T03:25:41.640Z,12.43
2023-01-19T03:28:10.714Z,13.43
2023-01-19T03:30:40.790Z,13.38
2023-01-19T03:33:09.990Z,13.30
2023-01-19T03:35:39.778Z,13.05
2023-01-19T03:38:08.609Z,13.57
2023-01-19T03:40:36.720Z,13.00
2023-01-19T03:43:04.692Z,13.40
2023-01-19T03:45:34.536Z,12.47
2023-01-19T03:48:02.947Z,12.95
2023-01-19T03:50:31.220Z,11.70
2023-01-19T03:53:03.251Z,13.00
2023-01-19T03:55:30.999Z,14.07
2023-01-19T03:57:58.536Z,12.67
2023-01-19T04:00:26.081Z,12.60
2023-01-19T04:02:55.483Z,12.30
2023-01-19T04:05:23.236Z,13.27
2023-01-19T04:07:50.992Z,13.17
2023-01-19T04:10:18.687Z,13.23
2023-01-19T04:12:46.333Z,12.93
2023-01-19T04:15:14.350Z,13.43
2023-01-19T04:17:42.183Z,11.30
2023-01-19T04:20:11.593Z,13.50
2023-01-19T04:22:40.060Z,13.17
2023-01-19T04:25:08.314Z,12.80
2023-01-19T04:27:35.976Z,13.53
2023-01-19T04:30:04.612Z,13.35
2023-01-19T04:32:33.274Z,12.27
2023-01-19T04:35:00.868Z,13.98
2023-01-19T04:37:29.915Z,12.93
2023-01-19T04:39:57.498Z,13.97
2023-01-19T04:42:25.127Z,13.55
2023-01-19T04:44:52.680Z,13.93
2023-01-19T04:47:20.253Z,13.93
2023-01-19T04:49:47.790Z,14.37
2023-01-19T04:52:15.329Z,13.90
2023-01-19T04:54:44.215Z,13.60
2023-01-19T04:57:11.688Z,13.65
2023-01-19T04:59:39.392Z,14.03
2023-01-19T05:02:06.941Z,14.23
2023-01-19T05:04:34.447Z,13.97
2023-01-19T05:07:02.196Z,15.38
2023-01-19T05:09:29.733Z,14.27
2023-01-19T05:11:58.620Z,15.85
2023-01-19T05:14:26.489Z,15.13
2023-01-19T05:16:54.066Z,14.93
2023-01-19T05:19:21.939Z,16.73
2023-01-19T05:21:49.468Z,15.65
2023-01-19T05:24:17.120Z,15.65
2023-01-19T05:26:44.632Z,16.10
2023-01-19T05:29:13.728Z,15.63
2023-01-19T05:31:41.284Z,14.80
2023-01-19T05:34:11.721Z,15.18
2023-01-19T05:36:39.603Z,16.45
2023-01-19T05:39:07.191Z,15.30
2023-01-19T05:41:34.695Z,14.90
2023-01-19T05:44:02.231Z,14.67
2023-01-19T05:46:31.159Z,13.90
2023-01-19T05:49:01.630Z,15.15
2023-01-19T05:51:34.855Z,14.38
2023-01-19T05:54:02.732Z,15.35
2023-01-19T05:56:30.601Z,14.05
2023-01-19T05:58:58.149Z,14.10
2023-01-19T06:01:25.819Z,14.88
2023-01-19T06:03:54.788Z,14.70
2023-01-19T06:06:22.442Z,14.75
2023-01-19T06:08:50.079Z,14.52
2023-01-19T06:11:17.905Z,14.32
2023-01-19T06:13:47.568Z,14.70
2023-01-19T06:16:15.374Z,14.98
2023-01-19T06:18:42.918Z,14.93
2023-01-19T06:21:14.132Z,14.27
2023-01-19T06:23:41.692Z,14.30
2023-01-19T06:26:09.516Z,14.33
2023-01-19T06:28:37.137Z,15.53
2023-01-19T06:31:04.743Z,14.53
2023-01-19T06:33:33.159Z,13.93
2023-01-19T06:36:01.061Z,13.80
2023-01-19T06:38:30.003Z,13.87
2023-01-19T06:40:58.596Z,14.33
2023-01-19T06:43:27.067Z,14.10
2023-01-19T06:45:54.937Z,14.02
2023-01-19T06:48:22.852Z,15.03
2023-01-19T06:50:50.422Z,14.00
2023-01-19T06:53:20.028Z,13.88
2023-01-19T06:55:49.053Z,14.37
2023-01-19T06:58:16.804Z,14.07
2023-01-19T07:00:44.386Z,13.57
2023-01-19T07:03:18.909Z,13.60
2023-01-19T07:05:46.520Z,13.77
2023-01-19T07:08:15.586Z,13.40
2023-01-19T07:11:23.655Z,12.63
2023-01-19T07:13:31.964Z,13.20
2023-01-19T07:15:59.686Z,12.93
2023-01-19T07:18:27.322Z,14.68
2023-01-19T07:20:54.793Z,14.25
2023-01-19T07:23:22.358Z,13.57
2023-01-19T07:25:49.899Z,12.40
2023-01-19T07:28:17.797Z,12.90
2023-01-19T07:30:46.988Z,13.52
2023-01-19T07:33:14.496Z,12.73
2023-01-19T07:35:46.562Z,13.95
2023-01-19T07:38:14.074Z,13.93
2023-01-19T07:40:41.687Z,14.07
2023-01-19T07:43:09.192Z,12.93
2023-01-19T07:45:36.781Z,13.63
2023-01-19T07:48:05.899Z,14.02
2023-01-19T07:50:33.457Z,13.40
2023-01-19T07:53:05.642Z,14.55
2023-01-19T07:55:33.183Z,13.30
2023-01-19T07:58:00.700Z,12.80
2023-01-19T08:00:28.315Z,13.38
2023-01-19T08:03:00.002Z,13.10
2023-01-19T08:05:29.880Z,13.35
2023-01-19T08:07:58.488Z,14.48
2023-01-19T08:10:26.822Z,14.05
2023-01-19T08:12:54.463Z,14.05
2023-01-19T08:15:23.811Z,13.73
2023-01-19T08:17:58.131Z,14.82
2023-01-19T08:20:25.772Z,14.33
2023-01-19T08:22:59.926Z,14.40
2023-01-19T08:25:28.531Z,13.35
2023-01-19T08:27:57.365Z,15.17
2023-01-19T08:30:26.845Z,13.97
2023-01-19T08:32:54.993Z,14.32
2023-01-19T08:35:23.781Z,15.27
2023-01-19T08:37:51.357Z,15.45
2023-01-19T08:40:20.464Z,14.52
2023-01-19T08:42:48.170Z,15.00
2023-01-19T08:45:15.893Z,14.93
2023-01-19T08:47:43.464Z,15.40
2023-01-19T08:50:11.944Z,14.80
2023-01-19T08:52:39.508Z,14.80
2023-01-19T08:55:07.840Z,15.45
2023-01-19T08:57:36.803Z,14.60
2023-01-19T09:00:04.780Z,14.93
2023-01-19T09:02:32.464Z,15.13
2023-01-19T09:05:00.098Z,15.82
2023-01-19T09:07:29.456Z,15.87
2023-01-19T09:09:57.459Z,14.93
2023-01-19T09:12:25.212Z,14.35
2023-01-19T09:14:54.242Z,14.23
2023-01-19T09:17:21.742Z,15.32
2023-01-19T09:19:49.361Z,14.10
2023-01-19T09:22:17.048Z,14.30
2023-01-19T09:24:44.537Z,14.50
2023-01-19T09:27:12.158Z,13.63
2023-01-19T09:29:39.709Z,14.52
2023-01-19T09:32:09.111Z,15.23
2023-01-19T09:34:36.675Z,14.02
2023-01-19T09:37:04.737Z,15.50
2023-01-19T09:39:32.276Z,13.65
2023-01-19T09:42:03.643Z,14.15
2023-01-19T09:44:34.364Z,14.63
2023-01-19T09:47:03.637Z,14.07
2023-01-19T09:49:34.493Z,14.60
2023-01-19T09:52:02.214Z,14.45
2023-01-19T09:54:31.127Z,13.68
2023-01-19T09:56:58.692Z,14.15
2023-01-19T09:59:27.208Z,15.27
2023-01-19T10:02:02.927Z,14.35
2023-01-19T10:04:32.141Z,14.20
2023-01-19T10:07:10.301Z,14.50
2023-01-19T10:09:42.449Z,15.30
2023-01-19T10:12:13.122Z,15.48
2023-01-19T10:14:43.075Z,15.23
2023-01-19T10:17:15.308Z,15.52
2023-01-19T10:19:46.805Z,14.93
2023-01-19T10:22:20.401Z,14.73
2023-01-19T10:24:49.571Z,14.50
2023-01-19T10:27:18.597Z,15.43
2023-01-19T10:29:46.394Z,14.30
2023-01-19T10:32:17.051Z,14.95
2023-01-19T10:34:44.616Z,15.05
2023-01-19T10:37:18.162Z,13.67
2023-01-19T10:39:48.407Z,14.07
2023-01-19T10:42:16.654Z,14.67
2023-01-19T10:44:46.074Z,13.63
2023-01-19T10:47:16.537Z,14.17
2023-01-19T10:49:44.707Z,13.77
2023-01-19T10:52:20.645Z,13.53
2023-01-19T10:54:49.554Z,14.57
2023-01-19T10:57:22.247Z,14.10
2023-01-19T10:59:51.350Z,15.13
2023-01-19T11:02:20.226Z,15.05
2023-01-19T11:04:50.130Z,14.75
2023-01-19T11:07:20.513Z,14.05
2023-01-19T11:09:50.049Z,15.80
2023-01-19T11:12:18.505Z,14.13
2023-01-19T11:14:46.722Z,14.37
2023-01-19T11:17:19.836Z,14.73
2023-01-19T11:19:56.900Z,16.08
2023-01-19T11:22:27.590Z,14.30
2023-01-19T11:24:59.739Z,14.83
2023-01-19T11:27:27.895Z,14.73
2023-01-19T11:30:01.423Z,14.90
2023-01-19T11:32:29.123Z,14.88
2023-01-19T11:34:56.637Z,13.75
2023-01-19T11:37:28.609Z,14.70
2023-01-19T11:39:57.288Z,13.57
2023-01-19T11:42:26.767Z,12.82
2023-01-19T11:44:59.420Z,14.43
2023-01-19T11:47:28.956Z,13.30
2023-01-19T11:49:59.517Z,13.37
2023-01-19T11:52:30.410Z,13.05
2023-01-19T11:55:00.644Z,12.80
2023-01-19T11:57:29.477Z,13.27
2023-01-19T11:59:58.574Z,13.27
2023-01-19T12:02:29.646Z,13.43
2023-01-19T12:05:00.222Z,13.80
2023-01-19T12:07:30.410Z,13.05
2023-01-19T12:10:02.379Z,13.27
2023-01-19T12:12:33.297Z,13.10
2023-01-19T12:15:03.465Z,12.05
2023-01-19T12:17:32.891Z,12.73
2023-01-19T12:20:04.724Z,12.73
2023-01-19T12:22:36.347Z,10.85
2023-01-19T12:25:06.790Z,11.52
2023-01-19T12:27:40.698Z,11.00
2023-01-19T12:30:16.014Z,11.35
2023-01-19T12:32:44.011Z,10.80
2023-01-19T12:35:26.491Z,10.20
2023-01-19T12:37:54.457Z,10.48
2023-01-19T12:40:26.534Z,10.93
2023-01-19T12:42:58.624Z,10.20
2023-01-19T12:45:31.451Z,10.75
2023-01-19T12:47:59.325Z,10.73
2023-01-19T12:50:29.562Z,10.05
2023-01-19T12:52:58.996Z,11.70
2023-01-19T12:55:28.147Z,10.48
2023-01-19T12:58:02.029Z,10.47
2023-01-19T13:00:31.260Z,10.38
2023-01-19T13:03:00.032Z,11.73
2023-01-19T13:05:58.007Z,11.73
2023-01-19T13:08:31.110Z,10.35
2023-01-19T13:11:20.849Z,9.85
2023-01-19T13:14:06.957Z,9.73
2023-01-19T13:16:58.482Z,9.17
2023-01-19T13:19:33.137Z,8.35
2023-01-19T13:22:20.760Z,9.38
2023-01-19T13:25:09.152Z,8.55
2023-01-19T13:27:37.569Z,8.15
2023-01-19T13:30:10.731Z,9.07
2023-01-19T13:32:41.472Z,8.40
2023-01-19T13:35:14.477Z,8.20
2023-01-19T13:37:44.381Z,8.05
2023-01-19T13:40:19.560Z,7.57
2023-01-19T13:42:48.024Z,6.93
2023-01-19T13:45:24.900Z,7.55
2023-01-19T13:47:53.588Z,7.38
2023-01-19T13:50:22.554Z,7.68
2023-01-19T13:52:53.913Z,6.65
2023-01-19T13:55:23.241Z,7.47
2023-01-19T13:57:51.546Z,7.22
2023-01-19T14:00:21.197Z,7.47
2023-01-19T14:02:53.860Z,7.53
2023-01-19T14:05:23.528Z,8.13
2023-01-19T14:08:00.379Z,8.52
2023-01-19T14:10:31.140Z,8.15
2023-01-19T14:12:59.771Z,8.48
2023-01-19T14:15:28.363Z,7.38
2023-01-19T14:18:10.504Z,7.55
2023-01-19T14:20:38.239Z,8.13
2023-01-19T14:23:06.430Z,8.52
2023-01-19T14:25:36.127Z,8.38
2023-01-19T14:28:22.544Z,8.30
2023-01-19T14:30:56.661Z,8.57
2023-01-19T14:33:37.353Z,8.68
2023-01-19T14:36:27.315Z,8.20
2023-01-19T14:38:55.561Z,7.90
2023-01-19T14:41:25.520Z,8.85
2023-01-19T14:43:55.875Z,8.07
2023-01-19T14:46:24.450Z,8.15
2023-01-19T14:48:53.317Z,8.98
2023-01-19T14:51:22.812Z,7.95
2023-01-19T14:53:51.853Z,7.43
2023-01-19T14:56:28.120Z,8.27
2023-01-19T14:58:56.360Z,7.70
2023-01-19T15:01:24.227Z,7.30
2023-01-19T15:03:51.912Z,7.53
2023-01-19T15:06:21.401Z,6.38
2023-01-19T15:08:50.007Z,6.28
2023-01-19T15:11:24.029Z,5.93
2023-01-19T15:13:53.053Z,5.97
2023-01-19T15:16:21.787Z,5.72
2023-01-19T15:18:49.464Z,5.30
2023-01-19T15:21:19.505Z,5.32
2023-01-19T15:23:48.393Z,5.72
2023-01-19T15:26:17.087Z,4.88
2023-01-19T15:28:45.571Z,5.25
2023-01-19T15:31:16.658Z,4.90
2023-01-19T15:33:44.718Z,4.78
2023-01-19T15:36:17.982Z,3.90
2023-01-19T15:38:46.392Z,4.38
2023-01-19T15:41:14.605Z,5.22
2023-01-19T15:43:42.163Z,4.30
2023-01-19T15:46:10.272Z,4.68
2023-01-19T15:48:39.454Z,4.57
2023-01-19T15:51:07.004Z,5.05
2023-01-19T15:53:34.636Z,4.85
2023-01-19T15:56:02.165Z,4.80
2023-01-19T15:58:29.766Z,4.97
2023-01-19T16:00:58.915Z,5.05
2023-01-19T16:03:26.894Z,5.38
2023-01-19T16:05:55.946Z,5.93
2023-01-19T16:08:23.572Z,5.72
2023-01-19T16:10:51.081Z,4.20
2023-01-19T16:13:18.583Z,3.05
2023-01-19T16:15:46.372Z,2.47
2023-01-19T16:18:14.460Z,2.30
2023-01-19T16:20:42.051Z,3.20
2023-01-19T16:23:15.489Z,4.30
2023-01-19T16:25:43.601Z,4.85
2023-01-19T16:28:11.224Z,4.97
2023-01-19T16:30:38.965Z,4.25
2023-01-19T16:33:06.537Z,4.03
2023-01-19T16:35:36.339Z,4.35
2023-01-19T16:38:04.042Z,3.00
2023-01-19T16:40:32.977Z,3.05
2023-01-19T16:43:00.494Z,3.30
2023-01-19T16:45:31.500Z,2.20
2023-01-19T16:47:59.102Z,2.10
2023-01-19T16:50:26.654Z,2.50
2023-01-19T16:52:56.535Z,2.83
2023-01-19T16:55:24.283Z,2.70
2023-01-19T16:57:53.476Z,3.45
2023-01-19T17:00:21.375Z,2.65
2023-01-19T17:02:49.039Z,1.83
2023-01-19T17:05:16.737Z,2.00
2023-01-19T17:07:44.484Z,2.20
2023-01-19T17:10:12.481Z,1.88
2023-01-19T17:12:40.258Z,1.50
2023-01-19T17:15:09.957Z,1.90
2023-01-19T17:17:38.120Z,1.63
2023-01-19T17:20:06.392Z,2.05
2023-01-19T17:22:33.910Z,1.67
2023-01-19T17:25:01.432Z,1.60
2023-01-19T17:27:29.176Z,1.80
2023-01-19T17:29:56.810Z,2.33
2023-01-19T17:32:25.893Z,2.23
2023-01-19T17:34:53.559Z,2.87
2023-01-19T17:37:21.308Z,1.77
2023-01-19T17:39:48.907Z,2.08
2023-01-19T17:42:16.461Z,1.80
2023-01-19T17:44:44.098Z,1.70
2023-01-19T17:47:11.770Z,1.93
2023-01-19T17:49:40.593Z,2.07
2023-01-19T17:52:08.576Z,2.38
2023-01-19T17:54:36.155Z,2.17
2023-01-19T17:57:03.670Z,2.10
2023-01-19T17:59:32.536Z,1.93
2023-01-19T18:02:00.159Z,2.20
2023-01-19T18:04:27.869Z,2.30
2023-01-19T18:06:57.073Z,2.13
2023-01-19T18:09:24.752Z,2.93
2023-01-19T18:11:53.021Z,2.20
2023-01-19T18:14:20.764Z,2.70
2023-01-19T18:16:48.367Z,2.47
2023-01-19T18:19:16.254Z,1.90
2023-01-19T18:21:44.179Z,2.03
2023-01-19T18:24:13.336Z,2.10
2023-01-19T18:26:42.450Z,1.63
2023-01-19T18:29:10.307Z,2.33
2023-01-19T18:31:38.384Z,1.80
2023-01-19T18:34:06.435Z,1.90
2023-01-19T18:36:34.943Z,1.90
2023-01-19T18:39:02.611Z,1.83
2023-01-19T18:41:31.830Z,1.83
2023-01-19T18:44:00.130Z,1.93
2023-01-19T18:46:28.032Z,1.90
2023-01-19T18:48:56.016Z,2.10
2023-01-19T18:51:23.948Z,1.90
2023-01-19T18:53:52.475Z,1.70
2023-01-19T18:56:20.517Z,1.90
2023-01-19T18:58:50.305Z,2.20
2023-01-19T19:01:19.344Z,1.77
2023-01-19T19:03:47.118Z,2.70
2023-01-19T19:06:16.930Z,3.13
2023-01-19T19:08:44.713Z,2.17
2023-01-19T19:11:14.163Z,2.20
2023-01-19T19:13:42.378Z,2.20
2023-01-19T19:16:13.594Z,1.70
2023-01-19T19:18:44.488Z,1.87
2023-01-19T19:21:15.879Z,1.73
2023-01-19T19:23:44.044Z,1.70
2023-01-19T19:26:15.605Z,1.80
2023-01-19T19:28:47.802Z,1.67
2023-01-19T19:31:18.229Z,2.10
2023-01-19T19:33:46.231Z,1.90
2023-01-19T19:36:14.239Z,1.93
2023-01-19T19:38:42.911Z,1.60
2023-01-19T19:41:13.105Z,1.63
2023-01-19T19:43:41.633Z,1.33
2023-01-19T19:46:10.378Z,1.43
2023-01-19T19:48:39.703Z,1.90
2023-01-19T19:51:17.594Z,2.40
2023-01-19T19:53:45.946Z,1.73
2023-01-19T19:56:13.983Z,1.73
2023-01-19T19:58:42.956Z,1.60
2023-01-19T20:01:11.483Z,1.60
2023-01-19T20:03:41.246Z,1.63
2023-01-19T20:06:09.758Z,1.80
2023-01-19T20:08:37.429Z,1.40
2023-01-19T20:11:07.136Z,2.00
2023-01-19T20:13:35.567Z,1.60
2023-01-19T20:16:03.992Z,2.10
2023-01-19T20:18:32.055Z,1.60
2023-01-19T20:21:01.347Z,1.60
2023-01-19T20:23:28.982Z,1.70
2023-01-19T20:25:56.580Z,2.00
2023-01-19T20:28:24.275Z,2.00
2023-01-19T20:30:54.677Z,1.30
2023-01-19T20:33:22.930Z,1.60
2023-01-19T20:35:51.966Z,1.70
2023-01-19T20:38:20.971Z,1.37
2023-01-19T20:40:48.577Z,1.97
2023-01-19T20:43:16.662Z,1.17
2023-01-19T20:45:45.079Z,1.20
2023-01-19T20:48:12.800Z,1.93
2023-01-19T20:50:44.558Z,1.00
2023-01-19T20:53:12.723Z,1.60
2023-01-19T20:55:44.103Z,2.20
2023-01-19T20:58:12.269Z,1.87
2023-01-19T21:00:40.650Z,1.50
2023-01-19T21:03:08.309Z,1.63
2023-01-19T21:05:36.165Z,1.77
2023-01-19T21:08:03.904Z,1.43
2023-01-19T21:10:31.614Z,1.30
2023-01-19T21:13:00.585Z,1.17
2023-01-19T21:15:28.732Z,1.03
2023-01-19T21:17:57.272Z,1.23
2023-01-19T21:20:24.891Z,1.23
2023-01-19T21:22:52.566Z,1.47
2023-01-19T21:25:20.549Z,0.80
2023-01-19T21:27:48.176Z,1.27
2023-01-19T21:30:17.632Z,1.10
2023-01-19T21:32:45.204Z,1.20
2023-01-19T21:35:13.102Z,1.00
2023-01-19T21:37:40.923Z,1.33
2023-01-19T21:40:09.085Z,1.20
2023-01-19T21:42:36.644Z,1.13
2023-01-19T21:45:04.326Z,1.10
2023-01-19T21:47:35.159Z,1.20
2023-01-19T21:50:03.005Z,1.00
2023-01-19T21:52:30.867Z,1.53
2023-01-19T21:54:58.499Z,1.27
2023-01-19T21:57:26.321Z,1.00
2023-01-19T21:59:54.230Z,0.90
2023-01-19T22:02:37.677Z,1.07
2023-01-19T22:05:07.549Z,1.55
2023-01-19T22:07:35.064Z,1.10
2023-01-19T22:10:02.774Z,1.30
2023-01-19T22:12:30.419Z,0.97
2023-01-19T22:14:57.964Z,1.30
2023-01-19T22:17:25.483Z,1.33
2023-01-19T22:19:53.070Z,1.27
2023-01-19T22:22:22.052Z,1.10
2023-01-19T22:24:50.533Z,1.20
2023-01-19T22:27:18.319Z,1.30
2023-01-19T22:29:46.105Z,1.30
2023-01-19T22:32:13.687Z,1.30
2023-01-19T22:34:41.430Z,1.10
2023-01-19T22:37:09.012Z,1.23
2023-01-19T22:39:38.170Z,1.10
2023-01-19T22:42:05.762Z,1.80
2023-01-19T22:44:33.493Z,1.40
2023-01-19T22:47:01.146Z,1.00
2023-01-19T22:49:28.989Z,1.30
2023-01-19T22:51:57.218Z,1.50
2023-01-19T22:54:24.814Z,1.17
2023-01-19T22:56:53.847Z,2.03
2023-01-19T22:59:21.369Z,1.13
2023-01-19T23:01:50.131Z,1.63
2023-01-19T23:04:17.858Z,0.97
2023-01-19T23:06:46.829Z,1.23
2023-01-19T23:09:15.094Z,1.07
2023-01-19T23:11:43.371Z,1.27
2023-01-19T23:14:14.463Z,1.30
2023-01-19T23:16:42.276Z,1.20
2023-01-19T23:19:10.620Z,1.23
2023-01-19T23:21:38.127Z,1.50
2023-01-19T23:24:05.961Z,1.33
2023-01-19T23:26:37.868Z,1.50
2023-01-19T23:29:07.164Z,1.20
2023-01-19T23:31:37.067Z,1.63
2023-01-19T23:34:05.615Z,1.50
2023-01-19T23:36:33.863Z,1.40
2023-01-19T23:39:02.724Z,1.57
2023-01-19T23:41:31.020Z,1.30
2023-01-19T23:43:58.653Z,1.70
2023-01-19T23:46:26.452Z,1.90
2023-01-19T23:48:55.371Z,1.20
2023-01-19T23:51:23.719Z,2.03
2023-01-19T23:53:51.416Z,1.50
2023-01-19T23:56:20.664Z,1.47
2023-01-19T23:58:49.329Z,1.10
